Flight Track Log - Related Links

Times and Time Zones

All times are in EDT time to prevent confusion due to time zone crossing. See the SKW6306 flight status page for this flight to view local times or setup timezone preferences in your user account.

Time Position Orientation Groundspeed Altitude Reporting Facility
EDT Latitude Longitude Course Direction KTS MPH feet Rate Location/Type
Mon 01:35:30 AM 39.7833 -104.6667 201° Southwest 222 255 7,600  Level Denver TRACON
Mon 01:36:30 AM 39.7167 -104.7000 201° Southwest 250 288 9,200 1,248 Climbing Denver TRACON
Mon 01:37:11 AM 39.6819 -104.7444 225° Southwest 284 327 9,700 941 Climbing Denver Center
Mon 01:38:12 AM 39.6667 -104.8642 261° West 340 391 10,800 1,721 Climbing Denver Center
Mon 01:39:13 AM 39.6856 -104.9856 281° West 345 397 13,200 2,164 Climbing Denver Center
Mon 01:40:14 AM 39.7394 -105.0942 303° West 357 411 15,200 1,918 Climbing Denver Center
Mon 01:41:15 AM 39.7819 -105.2042 297° West 339 390 17,100 1,672 Climbing Denver Center
Mon 01:42:16 AM 39.8253 -105.3128 297° West 341 392 18,600 1,426 Climbing Denver Center
Mon 01:43:17 AM 39.8717 -105.4306 297° West 340 391 20,000 1,279 Climbing Denver Center
Mon 01:44:18 AM 39.9547 -105.5072 325° Northwest 383 441 21,200 1,230 Climbing Denver Center
Mon 01:45:19 AM 40.0500 -105.5719 333° Northwest 386 444 22,500 1,230 Climbing Denver Center
Mon 01:46:20 AM 40.1439 -105.6367 332° Northwest 385 443 23,700 738 Climbing Denver Center
Mon 01:47:21 AM 40.2264 -105.6953 332° Northwest 382 440 24,000 149 Climbing Denver Center
Mon 01:48:21 AM 40.3497 -105.7769 333° Northwest 411 473 24,000  Level Denver Center
Mon 01:49:22 AM 40.4578 -105.8528 332° Northwest 436 502 24,000  Level Denver Center
Mon 01:50:23 AM 40.5675 -105.9281 332° Northwest 442 509 24,000  Level Denver Center
Mon 01:51:24 AM 40.6786 -106.0069 332° Northwest 450 518 24,000  Level Denver Center
Mon 01:52:25 AM 40.7906 -106.0850 332° Northwest 453 521 24,000  Level Denver Center
Mon 01:53:26 AM 40.9025 -106.1625 332° Northwest 456 525 24,000  Level Denver Center
Mon 01:54:27 AM 41.0067 -106.2378 331° Northwest 450 518 24,000  Level Denver Center
Mon 01:55:28 AM 41.1333 -106.3258 332° Northwest 460 529 24,000  Level Denver Center
Mon 01:56:29 AM 41.2392 -106.4019 332° Northwest 454 522 24,000  Level Denver Center
Mon 01:57:29 AM 41.3569 -106.4856 332° Northwest 456 525 24,000  Level Denver Center
Mon 01:58:30 AM 41.4689 -106.5661 332° Northwest 452 520 24,000  Level Denver Center
Mon 01:59:31 AM 41.5764 -106.6433 332° Northwest 458 527 24,000  Level Denver Center
Mon 02:00:32 AM 41.7006 -106.7322 332° Northwest 454 522 24,000  Level Denver Center
Mon 02:01:33 AM 41.8069 -106.8097 332° Northwest 455 524 24,000  Level Denver Center
Mon 02:02:33 AM 41.9139 -106.8886 331° Northwest 459 528 24,000  Level Denver Center
Mon 02:03:34 AM 42.0383 -106.9789 332° Northwest 457 526 24,000  Level Denver Center
Mon 02:04:35 AM 42.1447 -107.0564 332° Northwest 454 522 24,000  Level Denver Center
Mon 02:05:36 AM 42.2522 -107.1356 331° Northwest 459 528 24,000  Level Denver Center
Mon 02:06:37 AM 42.3764 -107.2281 331° Northwest 458 527 24,000  Level Denver Center
Mon 02:07:37 AM 42.4839 -107.3078 331° Northwest 460 529 24,000  Level Denver Center
Mon 02:08:38 AM 42.5903 -107.3867 331° Northwest 458 527 24,000  Level Denver Center
Mon 02:09:39 AM 42.7150 -107.4811 331° Northwest 460 529 24,000  Level Denver Center
Mon 02:10:40 AM 42.8214 -107.5600 331° Northwest 457 526 24,000  Level Denver Center
Mon 02:11:40 AM 42.9281 -107.6414 331° Northwest 460 529 24,000 -446 Level Denver Center
Mon 02:12:41 AM 43.0522 -107.7353 331° Northwest 459 528 23,100 -1,328 Descending Denver Center
Mon 02:13:42 AM 43.1589 -107.8167 331° Northwest 459 528 21,300 -1,956 Descending Denver Center
Mon 02:14:56 AM 43.2956 -107.9242 330° Northwest 452 520 18,700 -2,044 Descending Salt Center
Mon 02:15:57 AM 43.3911 -107.9997 330° Northwest 438 504 16,700 -2,083 Descending Salt Center
Mon 02:16:57 AM 43.4994 -108.0822 331° Northwest 420 483 14,500 -2,083 Descending Salt Center
Mon 02:17:58 AM 43.5928 -108.1467 333° Northwest 409 471 12,500 -1,967 Descending Salt Center
Mon 02:19:00 AM 43.6923 -108.2145 330° Northwest  Level FlightAware
Mon 02:26:00 AM 44.3413 -108.7398 330° Northwest  Level FlightAware
Mon 02:27:00 AM 44.4342 -108.8157 330° Northwest  Level FlightAware
Mon 02:28:00 AM 44.5276 -108.8906 335° Northwest  Level FlightAware
Mon 02:29:00 AM 44.6082 -108.9542 200° South  Level FlightAware
Mon 02:30:00 AM 44.5167 -109.0167 200° South  Level FlightAware
Mon 02:31:00 AM 44.5202 -109.0238 200° South  Level Estimated
Mon 02:32:00 AM 44.5167 -109.0167 200° South  Level FlightAware
Mon 02:33:00 AM 44.5202 -109.0238 200° South  Level Estimated
Mon 02:34:00 AM 44.5167 -109.0167 200° South  Level FlightAware
Mon 02:35:00 AM 44.5202 -109.0238 200° South  Level Estimated
Mon 02:36:00 AM 44.5167 -109.0167 200° South  Level FlightAware
Mon 02:37:00 AM 44.5202 -109.0238 200° South  Level Estimated
Mon 02:38:00 AM 44.5167 -109.0167 200° South  Level FlightAware

Login

Don't have an account? Register now (free) for customized features, flight alerts, and more!